sensor_id;sensor_type;location;lat;lon;timestamp;pressure;altitude;pressure_sealevel;temperature;humidity
57126;BME280;43000;50.770;6.110;2022-07-09T00:00:19;100831.13;;;15.95;71.78
57126;BME280;43000;50.770;6.110;2022-07-09T00:02:45;100828.63;;;15.92;71.63
57126;BME280;43000;50.770;6.110;2022-07-09T00:05:12;100825.28;;;15.88;71.73
57126;BME280;43000;50.770;6.110;2022-07-09T00:07:39;100818.66;;;15.80;71.98
57126;BME280;43000;50.770;6.110;2022-07-09T00:10:06;100816.94;;;15.79;71.86
57126;BME280;43000;50.770;6.110;2022-07-09T00:12:33;100815.31;;;15.76;72.13
57126;BME280;43000;50.770;6.110;2022-07-09T00:14:59;100826.13;;;15.73;72.46
57126;BME280;43000;50.770;6.110;2022-07-09T00:17:27;100824.50;;;15.71;72.36
57126;BME280;43000;50.770;6.110;2022-07-09T00:19:55;100820.16;;;15.68;72.64
57126;BME280;43000;50.770;6.110;2022-07-09T00:22:21;100815.78;;;15.67;72.45
57126;BME280;43000;50.770;6.110;2022-07-09T00:24:48;100820.16;;;15.68;72.48
57126;BME280;43000;50.770;6.110;2022-07-09T00:27:15;100812.19;;;15.68;72.34
57126;BME280;43000;50.770;6.110;2022-07-09T00:29:41;100814.78;;;15.70;72.39
57126;BME280;43000;50.770;6.110;2022-07-09T00:32:08;100805.88;;;15.71;71.83
57126;BME280;43000;50.770;6.110;2022-07-09T00:34:36;100810.56;;;15.65;72.11
57126;BME280;43000;50.770;6.110;2022-07-09T00:37:03;100799.16;;;15.63;72.20
57126;BME280;43000;50.770;6.110;2022-07-09T00:39:33;100810.69;;;15.62;72.27
57126;BME280;43000;50.770;6.110;2022-07-09T00:42:04;100803.69;;;15.61;72.45
57126;BME280;43000;50.770;6.110;2022-07-09T00:44:30;100808.22;;;15.59;72.47
57126;BME280;43000;50.770;6.110;2022-07-09T00:46:57;100806.34;;;15.61;72.36
57126;BME280;43000;50.770;6.110;2022-07-09T00:49:25;100805.56;;;15.59;72.38
57126;BME280;43000;50.770;6.110;2022-07-09T00:51:55;100801.19;;;15.58;73.03
57126;BME280;43000;50.770;6.110;2022-07-09T00:54:23;100792.69;;;15.52;73.03
57126;BME280;43000;50.770;6.110;2022-07-09T00:56:50;100799.69;;;15.53;73.01
57126;BME280;43000;50.770;6.110;2022-07-09T00:59:18;100800.66;;;15.52;73.24
57126;BME280;43000;50.770;6.110;2022-07-09T01:01:44;100797.56;;;15.43;73.51
57126;BME280;43000;50.770;6.110;2022-07-09T01:04:11;100796.59;;;15.44;73.34
57126;BME280;43000;50.770;6.110;2022-07-09T01:06:38;100793.16;;;15.42;73.57
57126;BME280;43000;50.770;6.110;2022-07-09T01:09:06;100797.81;;;15.39;73.72
57126;BME280;43000;50.770;6.110;2022-07-09T01:11:33;100794.38;;;15.37;73.93
57126;BME280;43000;50.770;6.110;2022-07-09T01:14:00;100797.19;;;15.34;73.89
57126;BME280;43000;50.770;6.110;2022-07-09T01:16:30;100796.66;;;15.27;73.99
57126;BME280;43000;50.770;6.110;2022-07-09T01:18:58;100790.72;;;15.22;74.26
57126;BME280;43000;50.770;6.110;2022-07-09T01:21:26;100784.69;;;15.18;74.48
57126;BME280;43000;50.770;6.110;2022-07-09T01:23:52;100785.63;;;15.17;74.55
57126;BME280;43000;50.770;6.110;2022-07-09T01:26:20;100790.16;;;15.15;74.54
57126;BME280;43000;50.770;6.110;2022-07-09T01:28:46;100787.13;;;15.06;75.10
57126;BME280;43000;50.770;6.110;2022-07-09T01:31:13;100790.13;;;14.99;75.39
57126;BME280;43000;50.770;6.110;2022-07-09T01:33:40;100792.38;;;14.90;75.36
57126;BME280;43000;50.770;6.110;2022-07-09T01:36:07;100782.63;;;14.90;76.03
57126;BME280;43000;50.770;6.110;2022-07-09T01:38:35;100778.00;;;14.94;75.58
57126;BME280;43000;50.770;6.110;2022-07-09T01:41:03;100770.81;;;14.96;75.50
57126;BME280;43000;50.770;6.110;2022-07-09T01:43:30;100770.81;;;14.96;75.51
57126;BME280;43000;50.770;6.110;2022-07-09T01:45:58;100774.41;;;14.95;75.12
57126;BME280;43000;50.770;6.110;2022-07-09T01:48:25;100770.97;;;14.93;75.59
57126;BME280;43000;50.770;6.110;2022-07-09T01:50:52;100769.41;;;14.89;75.66
57126;BME280;43000;50.770;6.110;2022-07-09T01:53:19;100772.84;;;14.91;75.53
57126;BME280;43000;50.770;6.110;2022-07-09T01:55:47;100765.84;;;14.90;75.69
57126;BME280;43000;50.770;6.110;2022-07-09T01:58:14;100760.53;;;14.90;75.90
57126;BME280;43000;50.770;6.110;2022-07-09T02:00:40;100760.44;;;14.91;75.58
57126;BME280;43000;50.770;6.110;2022-07-09T02:03:07;100760.53;;;14.90;75.55
57126;BME280;43000;50.770;6.110;2022-07-09T02:05:34;100756.13;;;14.89;75.61
57126;BME280;43000;50.770;6.110;2022-07-09T02:08:00;100764.09;;;14.89;75.61
57126;BME280;43000;50.770;6.110;2022-07-09T02:10:27;100760.75;;;14.85;75.83
57126;BME280;43000;50.770;6.110;2022-07-09T02:12:55;100757.31;;;14.83;76.13
57126;BME280;43000;50.770;6.110;2022-07-09T02:15:21;100753.88;;;14.81;76.01
57126;BME280;43000;50.770;6.110;2022-07-09T02:17:48;100752.25;;;14.78;75.91
57126;BME280;43000;50.770;6.110;2022-07-09T02:20:15;100742.75;;;14.74;76.25
57126;BME280;43000;50.770;6.110;2022-07-09T02:22:41;100752.63;;;14.71;76.62
57126;BME280;43000;50.770;6.110;2022-07-09T02:25:08;100746.72;;;14.66;76.82
57126;BME280;43000;50.770;6.110;2022-07-09T02:27:35;100741.63;;;14.61;76.82
57126;BME280;43000;50.770;6.110;2022-07-09T02:30:03;100743.25;;;14.64;76.91
57126;BME280;43000;50.770;6.110;2022-07-09T02:32:30;100742.09;;;14.69;76.40
57126;BME280;43000;50.770;6.110;2022-07-09T02:34:57;100743.81;;;14.70;76.39
57126;BME280;43000;50.770;6.110;2022-07-09T02:37:23;100741.09;;;14.72;76.30
57126;BME280;43000;50.770;6.110;2022-07-09T02:39:50;100753.50;;;14.71;76.38
57126;BME280;43000;50.770;6.110;2022-07-09T02:42:17;100754.44;;;14.70;76.36
57126;BME280;43000;50.770;6.110;2022-07-09T02:44:43;100739.53;;;14.68;76.65
57126;BME280;43000;50.770;6.110;2022-07-09T02:47:11;100746.63;;;14.67;76.67
57126;BME280;43000;50.770;6.110;2022-07-09T02:49:38;100744.06;;;14.66;76.46
57126;BME280;43000;50.770;6.110;2022-07-09T02:52:05;100745.84;;;14.65;76.37
57126;BME280;43000;50.770;6.110;2022-07-09T02:54:32;100746.00;;;14.62;76.36
57126;BME280;43000;50.770;6.110;2022-07-09T02:57:00;100746.00;;;14.62;76.21
57126;BME280;43000;50.770;6.110;2022-07-09T02:59:26;100740.28;;;14.52;76.82
57126;BME280;43000;50.770;6.110;2022-07-09T03:01:53;100744.25;;;14.44;77.31
57126;BME280;43000;50.770;6.110;2022-07-09T03:04:21;100740.97;;;14.38;77.56
57126;BME280;43000;50.770;6.110;2022-07-09T03:06:47;100741.75;;;14.41;77.10
57126;BME280;43000;50.770;6.110;2022-07-09T03:09:14;100737.22;;;14.43;77.27
57126;BME280;43000;50.770;6.110;2022-07-09T03:11:41;100742.53;;;14.43;77.50
57126;BME280;43000;50.770;6.110;2022-07-09T03:14:07;100731.13;;;14.41;77.18
57126;BME280;43000;50.770;6.110;2022-07-09T03:16:34;100727.63;;;14.40;77.26
57126;BME280;43000;50.770;6.110;2022-07-09T03:19:00;100736.88;;;14.31;77.21
57126;BME280;43000;50.770;6.110;2022-07-09T03:21:28;100732.91;;;14.23;77.75
57126;BME280;43000;50.770;6.110;2022-07-09T03:23:55;100727.63;;;14.23;78.25
57126;BME280;43000;50.770;6.110;2022-07-09T03:26:21;100725.88;;;14.22;78.24
57126;BME280;43000;50.770;6.110;2022-07-09T03:28:48;100734.00;;;14.18;78.37
57126;BME280;43000;50.770;6.110;2022-07-09T03:31:15;100728.47;;;14.23;78.59
57126;BME280;43000;50.770;6.110;2022-07-09T03:33:41;100726.50;;;14.27;77.96
57126;BME280;43000;50.770;6.110;2022-07-09T03:36:08;100725.59;;;14.28;77.85
57126;BME280;43000;50.770;6.110;2022-07-09T03:38:36;100729.00;;;14.30;77.53
57126;BME280;43000;50.770;6.110;2022-07-09T03:41:03;100728.25;;;14.28;77.63
57126;BME280;43000;50.770;6.110;2022-07-09T03:43:30;100728.31;;;14.26;77.99
57126;BME280;43000;50.770;6.110;2022-07-09T03:45:56;100729.38;;;14.22;77.80
57126;BME280;43000;50.770;6.110;2022-07-09T03:48:24;100728.38;;;14.25;78.18
57126;BME280;43000;50.770;6.110;2022-07-09T03:50:50;100728.47;;;14.23;78.28
57126;BME280;43000;50.770;6.110;2022-07-09T03:53:17;100735.47;;;14.24;78.07
57126;BME280;43000;50.770;6.110;2022-07-09T03:55:48;100736.19;;;14.28;77.97
57126;BME280;43000;50.770;6.110;2022-07-09T03:58:15;100739.59;;;14.30;77.71
57126;BME280;43000;50.770;6.110;2022-07-09T04:00:41;100736.81;;;14.33;77.49
57126;BME280;43000;50.770;6.110;2022-07-09T04:03:08;100725.50;;;14.29;77.74
57126;BME280;43000;50.770;6.110;2022-07-09T04:05:35;100730.00;;;14.27;78.36
57126;BME280;43000;50.770;6.110;2022-07-09T04:08:01;100735.88;;;14.34;77.97
57126;BME280;43000;50.770;6.110;2022-07-09T04:10:28;100740.91;;;14.40;77.63
57126;BME280;43000;50.770;6.110;2022-07-09T04:12:56;100732.78;;;14.43;77.75
57126;BME280;43000;50.770;6.110;2022-07-09T04:15:22;100736.22;;;14.45;77.64
57126;BME280;43000;50.770;6.110;2022-07-09T04:17:49;100735.19;;;14.48;77.81
57126;BME280;43000;50.770;6.110;2022-07-09T04:20:17;100739.41;;;14.52;77.25
57126;BME280;43000;50.770;6.110;2022-07-09T04:22:44;100736.66;;;14.55;77.57
57126;BME280;43000;50.770;6.110;2022-07-09T04:25:11;100729.38;;;14.58;77.40
57126;BME280;43000;50.770;6.110;2022-07-09T04:27:37;100724.78;;;14.62;77.44
57126;BME280;43000;50.770;6.110;2022-07-09T04:30:07;100727.28;;;14.65;77.20
57126;BME280;43000;50.770;6.110;2022-07-09T04:32:34;100730.72;;;14.67;76.94
57126;BME280;43000;50.770;6.110;2022-07-09T04:35:00;100725.19;;;14.72;77.46
57126;BME280;43000;50.770;6.110;2022-07-09T04:37:27;100726.81;;;14.74;77.26
57126;BME280;43000;50.770;6.110;2022-07-09T04:39:53;100732.75;;;14.79;77.23
57126;BME280;43000;50.770;6.110;2022-07-09T04:42:20;100730.47;;;14.89;76.99
57126;BME280;43000;50.770;6.110;2022-07-09T04:44:47;100727.53;;;14.94;77.03
57126;BME280;43000;50.770;6.110;2022-07-09T04:47:15;100731.47;;;15.04;76.61
57126;BME280;43000;50.770;6.110;2022-07-09T04:49:41;100738.25;;;15.10;76.53
57126;BME280;43000;50.770;6.110;2022-07-09T04:52:08;100737.16;;;15.14;76.59
57126;BME280;43000;50.770;6.110;2022-07-09T04:54:34;100733.28;;;15.19;76.34
57126;BME280;43000;50.770;6.110;2022-07-09T04:57:01;100724.91;;;15.27;76.21
57126;BME280;43000;50.770;6.110;2022-07-09T04:59:27;100732.28;;;15.38;76.10
57126;BME280;43000;50.770;6.110;2022-07-09T05:01:54;100728.97;;;15.50;75.61
57126;BME280;43000;50.770;6.110;2022-07-09T05:04:22;100737.22;;;15.61;75.33
57126;BME280;43000;50.770;6.110;2022-07-09T05:06:48;100735.81;;;15.72;75.35
57126;BME280;43000;50.770;6.110;2022-07-09T05:09:15;100735.06;;;15.85;74.84
57126;BME280;43000;50.770;6.110;2022-07-09T05:11:41;100736.00;;;16.00;74.76
57126;BME280;43000;50.770;6.110;2022-07-09T05:14:08;100737.09;;;16.12;74.33
57126;BME280;43000;50.770;6.110;2022-07-09T05:16:35;100736.22;;;16.27;73.79
57126;BME280;43000;50.770;6.110;2022-07-09T05:19:01;100739.09;;;16.39;73.77
57126;BME280;43000;50.770;6.110;2022-07-09T05:21:29;100741.16;;;16.49;73.38
57126;BME280;43000;50.770;6.110;2022-07-09T05:23:56;100733.56;;;16.58;73.37
57126;BME280;43000;50.770;6.110;2022-07-09T05:26:22;100739.84;;;16.71;72.97
57126;BME280;43000;50.770;6.110;2022-07-09T05:28:49;100739.16;;;16.83;72.80
57126;BME280;43000;50.770;6.110;2022-07-09T05:31:15;100734.81;;;16.97;71.46
57126;BME280;43000;50.770;6.110;2022-07-09T05:33:42;100739.28;;;17.10;71.01
57126;BME280;43000;50.770;6.110;2022-07-09T05:36:08;100738.25;;;17.27;70.70
57126;BME280;43000;50.770;6.110;2022-07-09T05:38:36;100736.91;;;17.49;69.99
57126;BME280;43000;50.770;6.110;2022-07-09T05:41:03;100738.34;;;17.83;68.72
57126;BME280;43000;50.770;6.110;2022-07-09T05:43:30;100735.09;;;18.19;67.34
57126;BME280;43000;50.770;6.110;2022-07-09T05:45:56;100732.63;;;18.56;67.33
57126;BME280;43000;50.770;6.110;2022-07-09T05:48:24;100735.81;;;18.88;67.24
57126;BME280;43000;50.770;6.110;2022-07-09T05:50:51;100736.25;;;19.08;64.64
57126;BME280;43000;50.770;6.110;2022-07-09T05:53:17;100730.25;;;19.17;64.53
57126;BME280;43000;50.770;6.110;2022-07-09T05:55:45;100730.44;;;19.27;64.18
57126;BME280;43000;50.770;6.110;2022-07-09T05:58:12;100720.84;;;19.37;63.65
57126;BME280;43000;50.770;6.110;2022-07-09T06:00:38;100721.03;;;19.47;63.43
57126;BME280;43000;50.770;6.110;2022-07-09T06:03:05;100721.84;;;19.60;62.65
57126;BME280;43000;50.770;6.110;2022-07-09T06:05:31;100724.75;;;19.57;63.22
57126;BME280;43000;50.770;6.110;2022-07-09T06:07:58;100723.69;;;19.60;63.35
57126;BME280;43000;50.770;6.110;2022-07-09T06:10:24;100722.38;;;19.65;63.03
57126;BME280;43000;50.770;6.110;2022-07-09T06:12:53;100729.31;;;19.81;62.22
57126;BME280;43000;50.770;6.110;2022-07-09T06:15:19;100733.41;;;19.86;62.65
57126;BME280;43000;50.770;6.110;2022-07-09T06:17:46;100731.91;;;19.82;62.83
57126;BME280;43000;50.770;6.110;2022-07-09T06:20:15;100724.47;;;19.86;62.83
57126;BME280;43000;50.770;6.110;2022-07-09T06:22:42;100730.03;;;19.95;61.83
57126;BME280;43000;50.770;6.110;2022-07-09T06:25:09;100727.19;;;20.10;61.58
57126;BME280;43000;50.770;6.110;2022-07-09T06:27:35;100719.50;;;20.05;61.71
57126;BME280;43000;50.770;6.110;2022-07-09T06:30:04;100718.72;;;20.16;61.39
57126;BME280;43000;50.770;6.110;2022-07-09T06:32:31;100716.97;;;20.15;61.43
57126;BME280;43000;50.770;6.110;2022-07-09T06:34:58;100714.31;;;20.15;61.18
57126;BME280;43000;50.770;6.110;2022-07-09T06:37:25;100710.47;;;20.30;61.47
57126;BME280;43000;50.770;6.110;2022-07-09T06:39:51;100714.91;;;20.43;59.85
57126;BME280;43000;50.770;6.110;2022-07-09T06:42:21;100718.84;;;20.50;59.51
57126;BME280;43000;50.770;6.110;2022-07-09T06:44:48;100719.50;;;20.65;59.27
57126;BME280;43000;50.770;6.110;2022-07-09T06:47:16;100711.88;;;20.71;58.98
57126;BME280;43000;50.770;6.110;2022-07-09T06:49:42;100711.41;;;20.77;58.94
57126;BME280;43000;50.770;6.110;2022-07-09T06:52:09;100708.34;;;20.71;58.86
57126;BME280;43000;50.770;6.110;2022-07-09T06:54:36;100703.84;;;20.71;58.86
57126;BME280;43000;50.770;6.110;2022-07-09T06:57:03;100714.94;;;20.78;58.25
57126;BME280;43000;50.770;6.110;2022-07-09T06:59:32;100709.34;;;20.81;57.78
57126;BME280;43000;50.770;6.110;2022-07-09T07:01:58;100708.25;;;20.84;58.04
57126;BME280;43000;50.770;6.110;2022-07-09T07:04:26;100714.00;;;20.90;57.85
57126;BME280;43000;50.770;6.110;2022-07-09T07:06:53;100709.72;;;20.99;57.19
57126;BME280;43000;50.770;6.110;2022-07-09T07:09:19;100720.84;;;21.06;56.89
57126;BME280;43000;50.770;6.110;2022-07-09T07:11:47;100717.78;;;21.10;56.64
57126;BME280;43000;50.770;6.110;2022-07-09T07:14:14;100715.72;;;21.14;55.87
57126;BME280;43000;50.770;6.110;2022-07-09T07:16:41;100716.34;;;21.17;56.52
57126;BME280;43000;50.770;6.110;2022-07-09T07:19:08;100718.53;;;21.23;56.71
57126;BME280;43000;50.770;6.110;2022-07-09T07:21:37;100714.88;;;21.36;55.44
57126;BME280;43000;50.770;6.110;2022-07-09T07:24:04;100723.56;;;21.39;55.60
57126;BME280;43000;50.770;6.110;2022-07-09T07:26:31;100721.75;;;21.51;54.64
57126;BME280;43000;50.770;6.110;2022-07-09T07:28:57;100721.84;;;21.61;54.21
57126;BME280;43000;50.770;6.110;2022-07-09T07:31:24;100727.19;;;21.72;54.63
57126;BME280;43000;50.770;6.110;2022-07-09T07:33:51;100723.13;;;21.89;53.03
57126;BME280;43000;50.770;6.110;2022-07-09T07:36:17;100730.75;;;22.16;52.69
57126;BME280;43000;50.770;6.110;2022-07-09T07:38:46;100722.81;;;22.26;52.40
57126;BME280;43000;50.770;6.110;2022-07-09T07:41:13;100728.81;;;22.07;52.88
57126;BME280;43000;50.770;6.110;2022-07-09T07:43:42;100724.28;;;22.07;53.07
57126;BME280;43000;50.770;6.110;2022-07-09T07:46:09;100735.19;;;22.06;53.27
57126;BME280;43000;50.770;6.110;2022-07-09T07:48:35;100727.22;;;22.16;52.65
57126;BME280;43000;50.770;6.110;2022-07-09T07:51:02;100718.44;;;22.25;52.41
57126;BME280;43000;50.770;6.110;2022-07-09T07:53:30;100714.84;;;22.36;52.47
57126;BME280;43000;50.770;6.110;2022-07-09T07:55:59;100709.94;;;22.41;52.87
57126;BME280;43000;50.770;6.110;2022-07-09T07:58:26;100715.09;;;22.33;53.31
57126;BME280;43000;50.770;6.110;2022-07-09T08:00:52;100723.84;;;22.46;52.74
57126;BME280;43000;50.770;6.110;2022-07-09T08:03:20;100726.13;;;22.50;53.38
57126;BME280;43000;50.770;6.110;2022-07-09T08:05:46;100727.66;;;22.32;52.90
57126;BME280;43000;50.770;6.110;2022-07-09T08:08:13;100723.94;;;22.23;53.29
57126;BME280;43000;50.770;6.110;2022-07-09T08:10:40;100715.19;;;22.42;52.48
57126;BME280;43000;50.770;6.110;2022-07-09T08:13:08;100724.28;;;22.51;52.23
57126;BME280;43000;50.770;6.110;2022-07-09T08:15:37;100722.44;;;22.51;51.74
57126;BME280;43000;50.770;6.110;2022-07-09T08:18:03;100720.94;;;22.59;51.64
57126;BME280;43000;50.770;6.110;2022-07-09T08:20:30;100712.06;;;22.79;51.58
57126;BME280;43000;50.770;6.110;2022-07-09T08:22:56;100706.25;;;22.84;51.63
57126;BME280;43000;50.770;6.110;2022-07-09T08:25:23;100712.25;;;22.87;50.85
57126;BME280;43000;50.770;6.110;2022-07-09T08:27:50;100709.09;;;22.61;51.36
57126;BME280;43000;50.770;6.110;2022-07-09T08:30:18;100688.09;;;22.76;51.33
57126;BME280;43000;50.770;6.110;2022-07-09T08:32:44;100682.50;;;22.79;51.88
57126;BME280;43000;50.770;6.110;2022-07-09T08:35:11;100689.16;;;22.85;49.81
57126;BME280;43000;50.770;6.110;2022-07-09T08:37:37;100698.41;;;22.92;49.55
57126;BME280;43000;50.770;6.110;2022-07-09T08:40:05;100688.31;;;22.84;50.15
57126;BME280;43000;50.770;6.110;2022-07-09T08:42:32;100679.78;;;22.79;50.51
57126;BME280;43000;50.770;6.110;2022-07-09T08:44:59;100692.63;;;22.97;49.84
57126;BME280;43000;50.770;6.110;2022-07-09T08:47:27;100692.38;;;23.00;49.66
57126;BME280;43000;50.770;6.110;2022-07-09T08:49:57;100689.22;;;22.94;50.30
57126;BME280;43000;50.770;6.110;2022-07-09T08:52:25;100685.69;;;23.25;49.37
57126;BME280;43000;50.770;6.110;2022-07-09T08:54:53;100691.47;;;23.51;49.17
57126;BME280;43000;50.770;6.110;2022-07-09T08:57:20;100693.97;;;23.73;48.42
57126;BME280;43000;50.770;6.110;2022-07-09T08:59:46;100689.44;;;23.84;47.94
57126;BME280;43000;50.770;6.110;2022-07-09T09:02:13;100684.81;;;24.05;47.10
57126;BME280;43000;50.770;6.110;2022-07-09T09:04:41;100685.06;;;24.41;46.32
57126;BME280;43000;50.770;6.110;2022-07-09T09:07:12;100687.22;;;24.67;45.21
57126;BME280;43000;50.770;6.110;2022-07-09T09:09:39;100682.88;;;24.93;43.88
57126;BME280;43000;50.770;6.110;2022-07-09T09:12:06;100675.63;;;25.41;44.03
57126;BME280;43000;50.770;6.110;2022-07-09T09:14:33;100671.69;;;25.63;43.01
57126;BME280;43000;50.770;6.110;2022-07-09T09:17:03;100675.03;;;25.75;41.87
57126;BME280;43000;50.770;6.110;2022-07-09T09:19:30;100676.53;;;25.32;43.01
57126;BME280;43000;50.770;6.110;2022-07-09T09:21:58;100673.88;;;25.12;43.36
57126;BME280;43000;50.770;6.110;2022-07-09T09:24:25;100670.22;;;25.03;43.95
57126;BME280;43000;50.770;6.110;2022-07-09T09:26:56;100657.31;;;25.35;43.01
57126;BME280;43000;50.770;6.110;2022-07-09T09:29:22;100654.28;;;25.93;42.30
57126;BME280;43000;50.770;6.110;2022-07-09T09:31:49;100656.38;;;26.79;40.61
57126;BME280;43000;50.770;6.110;2022-07-09T09:34:16;100657.91;;;27.50;38.75
57126;BME280;43000;50.770;6.110;2022-07-09T09:36:45;100649.81;;;27.58;37.99
57126;BME280;43000;50.770;6.110;2022-07-09T09:39:15;100652.31;;;28.19;37.00
57126;BME280;43000;50.770;6.110;2022-07-09T09:41:43;100647.31;;;29.04;35.23
57126;BME280;43000;50.770;6.110;2022-07-09T09:44:11;100652.22;;;29.48;34.57
57126;BME280;43000;50.770;6.110;2022-07-09T09:46:40;100636.56;;;30.13;33.70
57126;BME280;43000;50.770;6.110;2022-07-09T09:49:09;100635.09;;;30.63;32.47
57126;BME280;43000;50.770;6.110;2022-07-09T09:51:44;100630.44;;;30.72;31.12
57126;BME280;43000;50.770;6.110;2022-07-09T09:54:14;100631.00;;;30.82;31.43
57126;BME280;43000;50.770;6.110;2022-07-09T09:56:41;100643.63;;;30.45;31.63
57126;BME280;43000;50.770;6.110;2022-07-09T09:59:09;100642.09;;;30.28;31.99
57126;BME280;43000;50.770;6.110;2022-07-09T10:01:37;100630.00;;;30.22;32.80
57126;BME280;43000;50.770;6.110;2022-07-09T10:04:03;100629.66;;;29.79;33.14
57126;BME280;43000;50.770;6.110;2022-07-09T10:06:30;100623.41;;;29.79;33.98
57126;BME280;43000;50.770;6.110;2022-07-09T10:09:01;100625.31;;;29.70;33.73
57126;BME280;43000;50.770;6.110;2022-07-09T10:11:39;100621.16;;;29.20;34.48
57126;BME280;43000;50.770;6.110;2022-07-09T10:14:06;100614.88;;;28.47;35.94
57126;BME280;43000;50.770;6.110;2022-07-09T10:16:37;100618.72;;;28.77;36.37
57126;BME280;43000;50.770;6.110;2022-07-09T10:19:04;100608.91;;;28.60;37.06
57126;BME280;43000;50.770;6.110;2022-07-09T10:21:36;100608.88;;;29.32;35.62
57126;BME280;43000;50.770;6.110;2022-07-09T10:24:04;100594.47;;;29.86;35.16
57126;BME280;43000;50.770;6.110;2022-07-09T10:26:43;100607.03;;;29.24;35.22
57126;BME280;43000;50.770;6.110;2022-07-09T10:29:24;100598.50;;;29.67;35.29
57126;BME280;43000;50.770;6.110;2022-07-09T10:31:52;100596.28;;;29.31;34.41
57126;BME280;43000;50.770;6.110;2022-07-09T10:37:11;100597.41;;;27.84;36.64
57126;BME280;43000;50.770;6.110;2022-07-09T10:39:38;100599.78;;;28.20;36.29
57126;BME280;43000;50.770;6.110;2022-07-09T10:42:10;100599.72;;;28.69;35.60
57126;BME280;43000;50.770;6.110;2022-07-09T10:44:43;100608.09;;;27.94;37.27
57126;BME280;43000;50.770;6.110;2022-07-09T10:47:10;100604.88;;;27.31;38.43
57126;BME280;43000;50.770;6.110;2022-07-09T10:49:37;100603.78;;;27.67;38.18
57126;BME280;43000;50.770;6.110;2022-07-09T10:52:04;100596.59;;;27.33;38.68
57126;BME280;43000;50.770;6.110;2022-07-09T10:54:32;100594.63;;;27.59;38.68
57126;BME280;43000;50.770;6.110;2022-07-09T10:56:59;100586.91;;;27.89;38.19
57126;BME280;43000;50.770;6.110;2022-07-09T10:59:27;100579.03;;;27.45;39.17
57126;BME280;43000;50.770;6.110;2022-07-09T11:01:53;100576.81;;;27.32;39.55
57126;BME280;43000;50.770;6.110;2022-07-09T11:04:27;100582.69;;;26.59;40.39
57126;BME280;43000;50.770;6.110;2022-07-09T11:06:55;100593.00;;;25.94;41.81
57126;BME280;43000;50.770;6.110;2022-07-09T11:09:22;100584.47;;;25.70;42.38
57126;BME280;43000;50.770;6.110;2022-07-09T11:11:49;100589.09;;;25.78;41.50
57126;BME280;43000;50.770;6.110;2022-07-09T11:14:16;100586.41;;;25.96;41.79
57126;BME280;43000;50.770;6.110;2022-07-09T11:16:53;100584.34;;;25.90;42.28
57126;BME280;43000;50.770;6.110;2022-07-09T11:19:19;100588.47;;;26.20;42.16
57126;BME280;43000;50.770;6.110;2022-07-09T11:21:47;100579.44;;;26.29;42.06
57126;BME280;43000;50.770;6.110;2022-07-09T11:24:15;100580.94;;;26.06;42.67
57126;BME280;43000;50.770;6.110;2022-07-09T11:26:42;100572.66;;;25.71;42.56
57126;BME280;43000;50.770;6.110;2022-07-09T11:29:09;100573.63;;;25.98;42.33
57126;BME280;43000;50.770;6.110;2022-07-09T11:31:36;100562.63;;;25.82;41.66
57126;BME280;43000;50.770;6.110;2022-07-09T11:34:04;100556.66;;;25.88;42.31
57126;BME280;43000;50.770;6.110;2022-07-09T11:36:37;100548.88;;;26.11;42.02
57126;BME280;43000;50.770;6.110;2022-07-09T11:39:04;100554.56;;;26.52;41.34
57126;BME280;43000;50.770;6.110;2022-07-09T11:41:40;100552.88;;;26.25;41.23
57126;BME280;43000;50.770;6.110;2022-07-09T11:44:06;100545.00;;;26.13;41.58
57126;BME280;43000;50.770;6.110;2022-07-09T11:46:33;100549.56;;;26.13;41.95
57126;BME280;43000;50.770;6.110;2022-07-09T11:48:59;100539.47;;;26.15;41.72
57126;BME280;43000;50.770;6.110;2022-07-09T11:51:30;100547.88;;;26.12;42.17
57126;BME280;43000;50.770;6.110;2022-07-09T11:53:57;100532.88;;;26.18;42.00
57126;BME280;43000;50.770;6.110;2022-07-09T11:56:24;100545.09;;;26.04;42.29
57126;BME280;43000;50.770;6.110;2022-07-09T11:58:50;100544.44;;;26.02;41.80
57126;BME280;43000;50.770;6.110;2022-07-09T12:01:19;100544.88;;;25.79;41.79
57126;BME280;43000;50.770;6.110;2022-07-09T12:03:47;100543.41;;;25.67;42.14
57126;BME280;43000;50.770;6.110;2022-07-09T12:06:14;100533.09;;;25.62;42.26
57126;BME280;43000;50.770;6.110;2022-07-09T12:08:42;100519.75;;;25.61;43.00
57126;BME280;43000;50.770;6.110;2022-07-09T12:11:08;100519.97;;;25.49;43.18
57126;BME280;43000;50.770;6.110;2022-07-09T12:13:35;100528.00;;;25.41;43.48
57126;BME280;43000;50.770;6.110;2022-07-09T12:16:02;100532.69;;;25.39;43.32
57126;BME280;43000;50.770;6.110;2022-07-09T12:18:28;100524.75;;;25.38;43.51
57126;BME280;43000;50.770;6.110;2022-07-09T12:20:55;100521.19;;;25.37;43.98
57126;BME280;43000;50.770;6.110;2022-07-09T12:23:21;100514.81;;;25.38;44.08
57126;BME280;43000;50.770;6.110;2022-07-09T12:25:49;100515.78;;;25.37;44.22
57126;BME280;43000;50.770;6.110;2022-07-09T12:28:16;100519.19;;;25.39;43.98
57126;BME280;43000;50.770;6.110;2022-07-09T12:30:43;100507.09;;;25.61;43.63
57126;BME280;43000;50.770;6.110;2022-07-09T12:33:10;100502.63;;;25.70;43.47
57126;BME280;43000;50.770;6.110;2022-07-09T12:35:36;100504.06;;;25.82;43.17
57126;BME280;43000;50.770;6.110;2022-07-09T12:38:03;100495.09;;;25.82;42.91
57126;BME280;43000;50.770;6.110;2022-07-09T12:40:30;100499.75;;;25.89;43.05
57126;BME280;43000;50.770;6.110;2022-07-09T12:42:58;100490.28;;;26.11;42.48
57126;BME280;43000;50.770;6.110;2022-07-09T12:45:24;100478.47;;;26.12;41.73
57126;BME280;43000;50.770;6.110;2022-07-09T12:47:51;100485.34;;;26.07;41.70
57126;BME280;43000;50.770;6.110;2022-07-09T12:50:17;100484.81;;;26.29;41.69
57126;BME280;43000;50.770;6.110;2022-07-09T12:52:44;100488.47;;;26.46;41.38